sensor_id;sensor_type;location;lat;lon;timestamp;pressure;altitude;pressure_sealevel;temperature;humidity
11339;BME280;5724;42.684;23.252;2023-03-22T00:00:26;94014.88;;;8.64;100.00
11339;BME280;5724;42.684;23.252;2023-03-22T00:02:54;94016.63;;;8.56;100.00
11339;BME280;5724;42.684;23.252;2023-03-22T00:05:20;94011.56;;;8.54;100.00
11339;BME280;5724;42.684;23.252;2023-03-22T00:07:45;94018.06;;;8.50;100.00
11339;BME280;5724;42.684;23.252;2023-03-22T00:10:15;94012.53;;;8.46;100.00
11339;BME280;5724;42.684;23.252;2023-03-22T00:12:41;94010.88;;;8.42;100.00
11339;BME280;5724;42.684;23.252;2023-03-22T00:15:07;94013.69;;;8.45;100.00
11339;BME280;5724;42.684;23.252;2023-03-22T00:17:33;94010.22;;;8.48;100.00
11339;BME280;5724;42.684;23.252;2023-03-22T00:20:01;94014.53;;;8.33;100.00
11339;BME280;5724;42.684;23.252;2023-03-22T00:22:30;94015.19;;;8.43;100.00
11339;BME280;5724;42.684;23.252;2023-03-22T00:24:56;94017.72;;;8.36;100.00
11339;BME280;5724;42.684;23.252;2023-03-22T00:27:21;94016.16;;;8.35;100.00
11339;BME280;5724;42.684;23.252;2023-03-22T00:29:47;94000.31;;;8.09;100.00
11339;BME280;5724;42.684;23.252;2023-03-22T00:32:12;94009.09;;;8.18;100.00
11339;BME280;5724;42.684;23.252;2023-03-22T00:34:37;94005.75;;;8.09;100.00
11339;BME280;5724;42.684;23.252;2023-03-22T00:37:03;94008.22;;;8.14;100.00
11339;BME280;5724;42.684;23.252;2023-03-22T00:39:28;94009.09;;;8.02;100.00
11339;BME280;5724;42.684;23.252;2023-03-22T00:41:54;94004.25;;;7.95;100.00
11339;BME280;5724;42.684;23.252;2023-03-22T00:44:20;94009.19;;;8.06;100.00
11339;BME280;5724;42.684;23.252;2023-03-22T00:46:45;93998.47;;;8.13;100.00
11339;BME280;5724;42.684;23.252;2023-03-22T00:49:10;94001.28;;;8.16;100.00
11339;BME280;5724;42.684;23.252;2023-03-22T00:51:36;93996.72;;;8.04;100.00
11339;BME280;5724;42.684;23.252;2023-03-22T00:54:02;93994.50;;;8.10;100.00
11339;BME280;5724;42.684;23.252;2023-03-22T00:56:27;93992.94;;;7.93;100.00
11339;BME280;5724;42.684;23.252;2023-03-22T00:58:53;93986.72;;;7.93;100.00
11339;BME280;5724;42.684;23.252;2023-03-22T01:01:18;93996.81;;;7.92;100.00
11339;BME280;5724;42.684;23.252;2023-03-22T01:03:44;93995.84;;;7.85;100.00
11339;BME280;5724;42.684;23.252;2023-03-22T01:06:10;93991.09;;;7.97;100.00
11339;BME280;5724;42.684;23.252;2023-03-22T01:08:35;93976.34;;;7.67;100.00
11339;BME280;5724;42.684;23.252;2023-03-22T01:11:04;93992.31;;;7.84;100.00
11339;BME280;5724;42.684;23.252;2023-03-22T01:13:30;93983.53;;;7.75;100.00
11339;BME280;5724;42.684;23.252;2023-03-22T01:15:55;93984.50;;;7.67;100.00
11339;BME280;5724;42.684;23.252;2023-03-22T01:18:21;93986.78;;;7.65;100.00
11339;BME280;5724;42.684;23.252;2023-03-22T01:20:46;93970.72;;;7.60;100.00
11339;BME280;5724;42.684;23.252;2023-03-22T01:23:12;93986.06;;;7.68;100.00
11339;BME280;5724;42.684;23.252;2023-03-22T01:25:37;93981.97;;;7.74;100.00
11339;BME280;5724;42.684;23.252;2023-03-22T01:28:03;93986.09;;;7.84;100.00
11339;BME280;5724;42.684;23.252;2023-03-22T01:30:31;93982.66;;;7.71;100.00
11339;BME280;5724;42.684;23.252;2023-03-22T01:32:56;93971.44;;;7.72;100.00
11339;BME280;5724;42.684;23.252;2023-03-22T01:35:22;93972.22;;;7.73;100.00
11339;BME280;5724;42.684;23.252;2023-03-22T01:37:47;93973.25;;;7.68;100.00
11339;BME280;5724;42.684;23.252;2023-03-22T01:40:13;93978.91;;;7.75;100.00
11339;BME280;5724;42.684;23.252;2023-03-22T01:42:40;93965.91;;;7.69;100.00
11339;BME280;5724;42.684;23.252;2023-03-22T01:50:36;93972.03;;;7.66;100.00
11339;BME280;5724;42.684;23.252;2023-03-22T01:53:03;93967.63;;;7.61;100.00
11339;BME280;5724;42.684;23.252;2023-03-22T01:55:31;93967.75;;;7.65;100.00
11339;BME280;5724;42.684;23.252;2023-03-22T01:57:58;93971.34;;;7.69;100.00
11339;BME280;5724;42.684;23.252;2023-03-22T02:00:23;93962.31;;;7.65;100.00
11339;BME280;5724;42.684;23.252;2023-03-22T02:02:50;93969.31;;;7.66;100.00
11339;BME280;5724;42.684;23.252;2023-03-22T02:05:16;93962.94;;;7.74;100.00
11339;BME280;5724;42.684;23.252;2023-03-22T02:07:43;93951.59;;;7.56;100.00
11339;BME280;5724;42.684;23.252;2023-03-22T02:10:14;93974.16;;;7.72;100.00
11339;BME280;5724;42.684;23.252;2023-03-22T02:24:16;93975.72;;;7.89;100.00
11339;BME280;5724;42.684;23.252;2023-03-22T02:27:01;93975.22;;;7.84;100.00
11339;BME280;5724;42.684;23.252;2023-03-22T02:44:11;93989.53;;;7.96;100.00
11339;BME280;5724;42.684;23.252;2023-03-22T02:49:27;93992.00;;;8.01;100.00
11339;BME280;5724;42.684;23.252;2023-03-22T02:52:01;93988.28;;;8.10;100.00
11339;BME280;5724;42.684;23.252;2023-03-22T02:57:07;93984.34;;;7.91;100.00
11339;BME280;5724;42.684;23.252;2023-03-22T02:59:36;93978.97;;;7.79;100.00
11339;BME280;5724;42.684;23.252;2023-03-22T03:02:03;93982.84;;;7.78;100.00
11339;BME280;5724;42.684;23.252;2023-03-22T03:04:34;93989.06;;;7.79;100.00
11339;BME280;5724;42.684;23.252;2023-03-22T03:07:05;93990.81;;;7.71;100.00
11339;BME280;5724;42.684;23.252;2023-03-22T03:09:34;93988.72;;;7.80;100.00
11339;BME280;5724;42.684;23.252;2023-03-22T03:12:00;93986.25;;;7.91;100.00
11339;BME280;5724;42.684;23.252;2023-03-22T03:14:28;93993.63;;;7.90;100.00
11339;BME280;5724;42.684;23.252;2023-03-22T03:27:43;93996.72;;;8.04;100.00
11339;BME280;5724;42.684;23.252;2023-03-22T03:30:24;93998.81;;;7.95;100.00
11339;BME280;5724;42.684;23.252;2023-03-22T03:32:55;93988.53;;;7.89;100.00
11339;BME280;5724;42.684;23.252;2023-03-22T03:35:48;94000.13;;;7.86;100.00
11339;BME280;5724;42.684;23.252;2023-03-22T03:38:18;94000.06;;;7.82;100.00
11339;BME280;5724;42.684;23.252;2023-03-22T03:40:49;93999.16;;;7.78;100.00
11339;BME280;5724;42.684;23.252;2023-03-22T03:43:15;93986.25;;;7.75;100.00
11339;BME280;5724;42.684;23.252;2023-03-22T03:45:42;94003.44;;;7.79;100.00
11339;BME280;5724;42.684;23.252;2023-03-22T03:48:13;93997.56;;;7.77;100.00
11339;BME280;5724;42.684;23.252;2023-03-22T03:50:42;94015.06;;;7.92;100.00
11339;BME280;5724;42.684;23.252;2023-03-22T03:53:08;94004.44;;;7.87;100.00
11339;BME280;5724;42.684;23.252;2023-03-22T03:55:33;94012.50;;;7.83;100.00
11339;BME280;5724;42.684;23.252;2023-03-22T03:57:58;94002.41;;;7.84;100.00
11339;BME280;5724;42.684;23.252;2023-03-22T04:00:24;94012.66;;;7.90;100.00
11339;BME280;5724;42.684;23.252;2023-03-22T04:02:49;94021.47;;;7.99;100.00
11339;BME280;5724;42.684;23.252;2023-03-22T04:05:15;94019.38;;;7.93;100.00
11339;BME280;5724;42.684;23.252;2023-03-22T04:07:41;94008.38;;;7.89;100.00
11339;BME280;5724;42.684;23.252;2023-03-22T04:10:07;94019.53;;;7.84;100.00
11339;BME280;5724;42.684;23.252;2023-03-22T04:12:32;94026.19;;;7.87;100.00
11339;BME280;5724;42.684;23.252;2023-03-22T04:14:58;94022.13;;;7.65;100.00
11339;BME280;5724;42.684;23.252;2023-03-22T04:17:24;94005.63;;;7.58;100.00
11339;BME280;5724;42.684;23.252;2023-03-22T04:19:51;94020.09;;;7.62;100.00
11339;BME280;5724;42.684;23.252;2023-03-22T04:22:17;94018.47;;;7.45;100.00
11339;BME280;5724;42.684;23.252;2023-03-22T04:24:43;94015.63;;;7.54;100.00
11339;BME280;5724;42.684;23.252;2023-03-22T04:27:18;94025.28;;;7.39;100.00
11339;BME280;5724;42.684;23.252;2023-03-22T04:29:44;94026.56;;;7.29;100.00
11339;BME280;5724;42.684;23.252;2023-03-22T04:32:14;94022.50;;;7.35;100.00
11339;BME280;5724;42.684;23.252;2023-03-22T04:34:41;94023.94;;;7.33;100.00
11339;BME280;5724;42.684;23.252;2023-03-22T04:37:06;94025.72;;;7.13;100.00
11339;BME280;5724;42.684;23.252;2023-03-22T04:39:32;94019.50;;;7.12;100.00
11339;BME280;5724;42.684;23.252;2023-03-22T04:41:58;94021.63;;;7.19;100.00
11339;BME280;5724;42.684;23.252;2023-03-22T04:44:23;94027.16;;;7.23;100.00
11339;BME280;5724;42.684;23.252;2023-03-22T04:46:49;94029.56;;;7.12;100.00
11339;BME280;5724;42.684;23.252;2023-03-22T04:49:14;94028.13;;;7.14;100.00
11339;BME280;5724;42.684;23.252;2023-03-22T04:51:40;94030.47;;;7.16;100.00
11339;BME280;5724;42.684;23.252;2023-03-22T04:54:05;94035.66;;;7.21;100.00
11339;BME280;5724;42.684;23.252;2023-03-22T04:56:31;94037.94;;;7.19;100.00
11339;BME280;5724;42.684;23.252;2023-03-22T04:58:56;94047.88;;;7.27;100.00
11339;BME280;5724;42.684;23.252;2023-03-22T05:01:21;94042.38;;;7.39;100.00
11339;BME280;5724;42.684;23.252;2023-03-22T05:03:47;94040.22;;;7.45;100.00
11339;BME280;5724;42.684;23.252;2023-03-22T05:06:12;94037.38;;;7.54;100.00
11339;BME280;5724;42.684;23.252;2023-03-22T05:08:40;94042.44;;;7.55;100.00
11339;BME280;5724;42.684;23.252;2023-03-22T05:11:12;94040.88;;;7.54;100.00
11339;BME280;5724;42.684;23.252;2023-03-22T05:13:38;94048.31;;;7.57;100.00
11339;BME280;5724;42.684;23.252;2023-03-22T05:16:04;94050.53;;;7.67;100.00
11339;BME280;5724;42.684;23.252;2023-03-22T05:18:30;94048.97;;;7.66;100.00
11339;BME280;5724;42.684;23.252;2023-03-22T05:20:57;94053.09;;;7.76;100.00
11339;BME280;5724;42.684;23.252;2023-03-22T05:23:23;94059.13;;;7.69;100.00
11339;BME280;5724;42.684;23.252;2023-03-22T05:25:51;94062.56;;;7.66;100.00
11339;BME280;5724;42.684;23.252;2023-03-22T05:28:18;94067.41;;;7.73;100.00
11339;BME280;5724;42.684;23.252;2023-03-22T05:30:44;94069.44;;;7.76;100.00
11339;BME280;5724;42.684;23.252;2023-03-22T05:33:11;94069.16;;;7.81;100.00
11339;BME280;5724;42.684;23.252;2023-03-22T05:35:38;94068.47;;;7.84;100.00
11339;BME280;5724;42.684;23.252;2023-03-22T05:38:05;94069.47;;;7.92;100.00
11339;BME280;5724;42.684;23.252;2023-03-22T05:40:30;94069.19;;;7.97;100.00
11339;BME280;5724;42.684;23.252;2023-03-22T05:42:56;94071.84;;;7.93;100.00
11339;BME280;5724;42.684;23.252;2023-03-22T05:45:22;94076.13;;;7.94;100.00
11339;BME280;5724;42.684;23.252;2023-03-22T05:47:48;94067.69;;;7.99;100.00
11339;BME280;5724;42.684;23.252;2023-03-22T05:50:17;94073.59;;;8.01;100.00
11339;BME280;5724;42.684;23.252;2023-03-22T05:52:43;94069.56;;;7.95;100.00
11339;BME280;5724;42.684;23.252;2023-03-22T05:55:13;94073.25;;;8.03;100.00
11339;BME280;5724;42.684;23.252;2023-03-22T05:57:39;94083.69;;;8.01;100.00
11339;BME280;5724;42.684;23.252;2023-03-22T06:00:08;94085.97;;;7.99;100.00
11339;BME280;5724;42.684;23.252;2023-03-22T06:02:38;94090.81;;;8.06;100.00
11339;BME280;5724;42.684;23.252;2023-03-22T06:05:04;94090.09;;;8.09;100.00
11339;BME280;5724;42.684;23.252;2023-03-22T06:07:29;94089.50;;;8.15;100.00
11339;BME280;5724;42.684;23.252;2023-03-22T06:09:55;94088.91;;;8.22;100.00
11339;BME280;5724;42.684;23.252;2023-03-22T06:12:20;94094.72;;;8.36;100.00
11339;BME280;5724;42.684;23.252;2023-03-22T06:14:49;94098.28;;;8.24;100.00
11339;BME280;5724;42.684;23.252;2023-03-22T06:17:14;94083.28;;;8.15;100.00
11339;BME280;5724;42.684;23.252;2023-03-22T06:19:40;94093.94;;;8.36;100.00
11339;BME280;5724;42.684;23.252;2023-03-22T06:22:05;94102.13;;;8.51;100.00
11339;BME280;5724;42.684;23.252;2023-03-22T06:24:30;94096.31;;;8.37;100.00
11339;BME280;5724;42.684;23.252;2023-03-22T06:26:56;94103.25;;;8.35;100.00
11339;BME280;5724;42.684;23.252;2023-03-22T06:29:21;94099.41;;;8.51;100.00
11339;BME280;5724;42.684;23.252;2023-03-22T06:31:47;94102.81;;;8.48;100.00
11339;BME280;5724;42.684;23.252;2023-03-22T06:34:12;94106.84;;;8.39;100.00
11339;BME280;5724;42.684;23.252;2023-03-22T06:36:37;94106.69;;;8.19;98.71
11339;BME280;5724;42.684;23.252;2023-03-22T06:39:03;94113.25;;;8.30;99.02
11339;BME280;5724;42.684;23.252;2023-03-22T06:41:29;94110.81;;;8.41;98.29
11339;BME280;5724;42.684;23.252;2023-03-22T06:43:55;94115.91;;;8.43;98.24
11339;BME280;5724;42.684;23.252;2023-03-22T06:46:20;94111.88;;;8.52;99.46
11339;BME280;5724;42.684;23.252;2023-03-22T06:48:46;94112.44;;;8.30;98.83
11339;BME280;5724;42.684;23.252;2023-03-22T06:51:11;94117.41;;;8.40;99.02
11339;BME280;5724;42.684;23.252;2023-03-22T06:53:36;94120.91;;;8.41;99.48
11339;BME280;5724;42.684;23.252;2023-03-22T06:56:02;94107.31;;;8.41;99.57
11339;BME280;5724;42.684;23.252;2023-03-22T06:58:28;94120.13;;;8.40;99.72
11339;BME280;5724;42.684;23.252;2023-03-22T07:00:56;94108.81;;;8.26;99.76
11339;BME280;5724;42.684;23.252;2023-03-22T07:03:22;94123.13;;;8.51;99.93
11339;BME280;5724;42.684;23.252;2023-03-22T07:05:48;94130.47;;;8.66;99.82
11339;BME280;5724;42.684;23.252;2023-03-22T07:08:13;94135.25;;;8.69;100.00
11339;BME280;5724;42.684;23.252;2023-03-22T07:10:40;94133.94;;;8.79;98.96
11339;BME280;5724;42.684;23.252;2023-03-22T07:13:06;94139.09;;;8.84;99.07
11339;BME280;5724;42.684;23.252;2023-03-22T07:15:32;94139.28;;;8.91;98.20
11339;BME280;5724;42.684;23.252;2023-03-22T07:17:59;94140.84;;;8.92;98.20
11339;BME280;5724;42.684;23.252;2023-03-22T07:20:26;94128.38;;;8.75;99.73
11339;BME280;5724;42.684;23.252;2023-03-22T07:22:51;94136.53;;;8.75;99.01
11339;BME280;5724;42.684;23.252;2023-03-22T07:25:18;94129.81;;;8.69;98.83
11339;BME280;5724;42.684;23.252;2023-03-22T07:27:43;94150.78;;;9.00;98.60
11339;BME280;5724;42.684;23.252;2023-03-22T07:30:09;94152.47;;;8.89;97.02
11339;BME280;5724;42.684;23.252;2023-03-22T07:32:35;94157.56;;;8.91;97.83
11339;BME280;5724;42.684;23.252;2023-03-22T07:35:03;94161.44;;;8.89;98.31
11339;BME280;5724;42.684;23.252;2023-03-22T07:37:28;94165.38;;;8.92;97.77
11339;BME280;5724;42.684;23.252;2023-03-22T07:39:54;94161.31;;;8.86;98.22
11339;BME280;5724;42.684;23.252;2023-03-22T07:42:20;94163.69;;;8.87;99.46
11339;BME280;5724;42.684;23.252;2023-03-22T07:44:45;94155.25;;;8.93;99.04
11339;BME280;5724;42.684;23.252;2023-03-22T07:47:11;94166.84;;;9.05;99.20
11339;BME280;5724;42.684;23.252;2023-03-22T07:49:36;94164.72;;;9.14;99.20
11339;BME280;5724;42.684;23.252;2023-03-22T07:52:02;94161.75;;;9.20;98.50
11339;BME280;5724;42.684;23.252;2023-03-22T07:54:28;94161.66;;;9.16;98.19
11339;BME280;5724;42.684;23.252;2023-03-22T07:56:53;94144.63;;;9.03;97.61
11339;BME280;5724;42.684;23.252;2023-03-22T07:59:18;94169.03;;;9.15;97.75
11339;BME280;5724;42.684;23.252;2023-03-22T08:01:44;94171.50;;;9.21;97.61
11339;BME280;5724;42.684;23.252;2023-03-22T08:04:09;94169.63;;;9.25;97.08
11339;BME280;5724;42.684;23.252;2023-03-22T08:06:35;94160.72;;;9.08;96.33
11339;BME280;5724;42.684;23.252;2023-03-22T08:09:04;94167.81;;;9.29;96.14
11339;BME280;5724;42.684;23.252;2023-03-22T08:11:33;94167.00;;;9.28;95.82
11339;BME280;5724;42.684;23.252;2023-03-22T08:13:58;94169.38;;;9.30;95.80
11339;BME280;5724;42.684;23.252;2023-03-22T08:16:23;94176.06;;;9.32;95.61
11339;BME280;5724;42.684;23.252;2023-03-22T08:18:49;94175.81;;;9.22;96.47
11339;BME280;5724;42.684;23.252;2023-03-22T08:21:14;94174.41;;;9.28;96.30
11339;BME280;5724;42.684;23.252;2023-03-22T08:23:40;94178.28;;;9.11;97.28
11339;BME280;5724;42.684;23.252;2023-03-22T08:26:06;94175.06;;;8.89;99.19
11339;BME280;5724;42.684;23.252;2023-03-22T08:28:31;94176.63;;;8.91;98.92
11339;BME280;5724;42.684;23.252;2023-03-22T08:30:57;94173.38;;;8.85;100.00
11339;BME280;5724;42.684;23.252;2023-03-22T08:33:22;94178.03;;;8.69;100.00
11339;BME280;5724;42.684;23.252;2023-03-22T08:35:49;94183.53;;;8.56;100.00
11339;BME280;5724;42.684;23.252;2023-03-22T08:38:15;94182.91;;;8.47;100.00
11339;BME280;5724;42.684;23.252;2023-03-22T08:40:41;94187.97;;;8.33;100.00
11339;BME280;5724;42.684;23.252;2023-03-22T08:43:09;94189.09;;;8.04;100.00
11339;BME280;5724;42.684;23.252;2023-03-22T08:45:35;94188.91;;;7.97;100.00
11339;BME280;5724;42.684;23.252;2023-03-22T08:48:02;94191.88;;;7.92;100.00
11339;BME280;5724;42.684;23.252;2023-03-22T08:50:27;94189.34;;;7.99;100.00
11339;BME280;5724;42.684;23.252;2023-03-22T08:52:53;94195.47;;;7.96;100.00
11339;BME280;5724;42.684;23.252;2023-03-22T08:55:18;94190.09;;;7.84;100.00
11339;BME280;5724;42.684;23.252;2023-03-22T08:57:44;94159.25;;;7.80;100.00
11339;BME280;5724;42.684;23.252;2023-03-22T09:00:15;94194.75;;;7.83;100.00
11339;BME280;5724;42.684;23.252;2023-03-22T09:02:41;94191.81;;;8.04;100.00
11339;BME280;5724;42.684;23.252;2023-03-22T09:05:07;94197.16;;;8.00;100.00
11339;BME280;5724;42.684;23.252;2023-03-22T09:07:33;94180.44;;;7.86;100.00
11339;BME280;5724;42.684;23.252;2023-03-22T09:09:58;94192.81;;;8.12;100.00
11339;BME280;5724;42.684;23.252;2023-03-22T09:12:24;94183.75;;;8.08;100.00
11339;BME280;5724;42.684;23.252;2023-03-22T09:14:50;94201.66;;;8.09;100.00
11339;BME280;5724;42.684;23.252;2023-03-22T09:17:15;94205.16;;;8.09;100.00
11339;BME280;5724;42.684;23.252;2023-03-22T09:19:43;94191.31;;;7.86;100.00
11339;BME280;5724;42.684;23.252;2023-03-22T09:22:08;94203.41;;;8.01;100.00
11339;BME280;5724;42.684;23.252;2023-03-22T09:24:33;94207.44;;;8.07;100.00
11339;BME280;5724;42.684;23.252;2023-03-22T09:26:59;94209.78;;;8.21;100.00
11339;BME280;5724;42.684;23.252;2023-03-22T09:29:24;94207.75;;;8.18;100.00
11339;BME280;5724;42.684;23.252;2023-03-22T09:31:50;94206.50;;;8.15;100.00
11339;BME280;5724;42.684;23.252;2023-03-22T09:34:15;94198.72;;;8.14;100.00
11339;BME280;5724;42.684;23.252;2023-03-22T09:36:41;94190.97;;;8.16;100.00
11339;BME280;5724;42.684;23.252;2023-03-22T09:39:07;94197.78;;;8.22;100.00
11339;BME280;5724;42.684;23.252;2023-03-22T09:44:11;94193.00;;;8.19;100.00
11339;BME280;5724;42.684;23.252;2023-03-22T09:46:41;94198.59;;;8.38;100.00
11339;BME280;5724;42.684;23.252;2023-03-22T09:49:17;94198.53;;;8.35;100.00
11339;BME280;5724;42.684;23.252;2023-03-22T09:51:45;94186.25;;;8.28;100.00
11339;BME280;5724;42.684;23.252;2023-03-22T09:54:19;94199.25;;;8.47;100.00
11339;BME280;5724;42.684;23.252;2023-03-22T09:56:59;94201.44;;;8.29;100.00
11339;BME280;5724;42.684;23.252;2023-03-22T10:02:20;94197.94;;;8.57;100.00
11339;BME280;5724;42.684;23.252;2023-03-22T10:07:37;94208.03;;;8.56;100.00
11339;BME280;5724;42.684;23.252;2023-03-22T10:10:13;94200.31;;;8.58;100.00
11339;BME280;5724;42.684;23.252;2023-03-22T10:12:52;94198.22;;;8.52;100.00
11339;BME280;5724;42.684;23.252;2023-03-22T10:15:34;94202.66;;;8.44;100.00
11339;BME280;5724;42.684;23.252;2023-03-22T10:18:04;94191.59;;;8.37;100.00
11339;BME280;5724;42.684;23.252;2023-03-22T10:20:44;94204.88;;;8.54;100.00
11339;BME280;5724;42.684;23.252;2023-03-22T10:23:17;94204.44;;;7.96;100.00
11339;BME280;5724;42.684;23.252;2023-03-22T10:25:45;94208.16;;;7.64;100.00
11339;BME280;5724;42.684;23.252;2023-03-22T10:28:20;94204.31;;;7.53;100.00
11339;BME280;5724;42.684;23.252;2023-03-22T10:30:54;94215.66;;;7.42;100.00
11339;BME280;5724;42.684;23.252;2023-03-22T10:33:30;94187.81;;;7.21;100.00
11339;BME280;5724;42.684;23.252;2023-03-22T10:35:59;94207.06;;;7.28;100.00
11339;BME280;5724;42.684;23.252;2023-03-22T10:38:27;94207.75;;;7.37;100.00
11339;BME280;5724;42.684;23.252;2023-03-22T10:40:56;94204.91;;;7.46;100.00
11339;BME280;5724;42.684;23.252;2023-03-22T10:43:34;94199.56;;;7.50;100.00
11339;BME280;5724;42.684;23.252;2023-03-22T10:46:03;94210.44;;;7.50;100.00
11339;BME280;5724;42.684;23.252;2023-03-22T10:48:38;94206.69;;;7.54;100.00
11339;BME280;5724;42.684;23.252;2023-03-22T10:51:05;94201.81;;;7.60;100.00
11339;BME280;5724;42.684;23.252;2023-03-22T10:53:39;94204.66;;;7.63;100.00
11339;BME280;5724;42.684;23.252;2023-03-22T10:56:10;94211.75;;;7.68;100.00
11339;BME280;5724;42.684;23.252;2023-03-22T10:58:37;94206.75;;;7.70;100.00
11339;BME280;5724;42.684;23.252;2023-03-22T11:01:13;94209.47;;;7.70;100.00
11339;BME280;5724;42.684;23.252;2023-03-22T11:03:52;94209.69;;;7.77;100.00
11339;BME280;5724;42.684;23.252;2023-03-22T11:06:23;94203.88;;;7.91;100.00
11339;BME280;5724;42.684;23.252;2023-03-22T11:08:52;94188.44;;;7.67;100.00
11339;BME280;5724;42.684;23.252;2023-03-22T11:11:36;94203.56;;;7.80;100.00
11339;BME280;5724;42.684;23.252;2023-03-22T11:14:19;94204.72;;;7.79;100.00
11339;BME280;5724;42.684;23.252;2023-03-22T11:17:15;94204.97;;;7.74;100.00
11339;BME280;5724;42.684;23.252;2023-03-22T11:19:52;94208.63;;;7.94;100.00
11339;BME280;5724;42.684;23.252;2023-03-22T11:24:51;94197.34;;;7.80;100.00
11339;BME280;5724;42.684;23.252;2023-03-22T11:27:28;94205.75;;;7.62;100.00
11339;BME280;5724;42.684;23.252;2023-03-22T11:30:16;94202.91;;;7.71;100.00
11339;BME280;5724;42.684;23.252;2023-03-22T11:32:44;94202.41;;;7.53;100.00
11339;BME280;5724;42.684;23.252;2023-03-22T11:35:19;94201.13;;;7.51;100.00
11339;BME280;5724;42.684;23.252;2023-03-22T11:37:54;94194.69;;;7.55;100.00
11339;BME280;5724;42.684;23.252;2023-03-22T11:40:31;94199.22;;;7.51;100.00
11339;BME280;5724;42.684;23.252;2023-03-22T11:43:19;94189.38;;;7.46;100.00
11339;BME280;5724;42.684;23.252;2023-03-22T11:45:49;94185.03;;;7.58;100.00
11339;BME280;5724;42.684;23.252;2023-03-22T11:48:21;94185.25;;;7.65;100.00
11339;BME280;5724;42.684;23.252;2023-03-22T11:50:47;94186.06;;;7.65;100.00
11339;BME280;5724;42.684;23.252;2023-03-22T11:53:16;94178.78;;;7.69;100.00
11339;BME280;5724;42.684;23.252;2023-03-22T11:55:43;94179.56;;;7.82;100.00
11339;BME280;5724;42.684;23.252;2023-03-22T12:01:02;94190.56;;;7.73;100.00
11339;BME280;5724;42.684;23.252;2023-03-22T12:03:32;94188.28;;;7.75;100.00
11339;BME280;5724;42.684;23.252;2023-03-22T12:06:03;94192.81;;;7.84;100.00
11339;BME280;5724;42.684;23.252;2023-03-22T12:08:41;94192.69;;;7.80;100.00
11339;BME280;5724;42.684;23.252;2023-03-22T12:11:24;94190.88;;;7.84;100.00
11339;BME280;5724;42.684;23.252;2023-03-22T12:13:54;94182.94;;;7.79;100.00
11339;BME280;5724;42.684;23.252;2023-03-22T12:16:27;94189.25;;;7.95;100.00
11339;BME280;5724;42.684;23.252;2023-03-22T12:19:22;94187.97;;;8.05;100.00
11339;BME280;5724;42.684;23.252;2023-03-22T12:21:53;94192.31;;;8.22;100.00
11339;BME280;5724;42.684;23.252;2023-03-22T12:24:30;94180.16;;;8.31;100.00
11339;BME280;5724;42.684;23.252;2023-03-22T12:27:05;94181.09;;;8.23;100.00
11339;BME280;5724;42.684;23.252;2023-03-22T12:29:32;94186.09;;;8.21;100.00
11339;BME280;5724;42.684;23.252;2023-03-22T12:32:11;94176.88;;;8.26;100.00
11339;BME280;5724;42.684;23.252;2023-03-22T12:34:45;94188.63;;;8.42;100.00
11339;BME280;5724;42.684;23.252;2023-03-22T12:37:17;94162.03;;;8.51;100.00
11339;BME280;5724;42.684;23.252;2023-03-22T12:40:02;94179.00;;;8.92;100.00
11339;BME280;5724;42.684;23.252;2023-03-22T12:42:38;94178.63;;;8.94;100.00
11339;BME280;5724;42.684;23.252;2023-03-22T12:45:13;94177.56;;;9.14;100.00
11339;BME280;5724;42.684;23.252;2023-03-22T12:47:57;94179.41;;;9.26;100.00
11339;BME280;5724;42.684;23.252;2023-03-22T12:50:33;94168.41;;;9.22;99.90
11339;BME280;5724;42.684;23.252;2023-03-22T12:53:01;94162.28;;;9.09;98.00
11339;BME280;5724;42.684;23.252;2023-03-22T12:55:32;94177.28;;;9.35;100.00
11339;BME280;5724;42.684;23.252;2023-03-22T12:57:58;94173.31;;;9.32;99.58
11339;BME280;5724;42.684;23.252;2023-03-22T13:05:47;94176.97;;;9.21;100.00
11339;BME280;5724;42.684;23.252;2023-03-22T13:08:19;94180.13;;;9.07;100.00
11339;BME280;5724;42.684;23.252;2023-03-22T13:21:18;94167.63;;;9.06;100.00
11339;BME280;5724;42.684;23.252;2023-03-22T13:24:00;94169.50;;;9.02;99.92
11339;BME280;5724;42.684;23.252;2023-03-22T13:26:52;94165.88;;;9.13;100.00
11339;BME280;5724;42.684;23.252;2023-03-22T13:29:33;94156.38;;;9.23;100.00
11339;BME280;5724;42.684;23.252;2023-03-22T13:32:03;94165.06;;;9.29;96.97
11339;BME280;5724;42.684;23.252;2023-03-22T13:34:37;94159.56;;;9.44;98.77
11339;BME280;5724;42.684;23.252;2023-03-22T13:37:08;94155.66;;;9.61;99.39
11339;BME280;5724;42.684;23.252;2023-03-22T13:39:35;94153.75;;;9.81;98.71
11339;BME280;5724;42.684;23.252;2023-03-22T13:42:18;94162.44;;;9.87;96.61
11339;BME280;5724;42.684;23.252;2023-03-22T13:44:52;94162.81;;;9.85;94.94
11339;BME280;5724;42.684;23.252;2023-03-22T13:47:37;94163.38;;;9.75;95.41
11339;BME280;5724;42.684;23.252;2023-03-22T13:50:30;94167.31;;;9.97;94.25
11339;BME280;5724;42.684;23.252;2023-03-22T13:53:05;94165.28;;;9.94;94.91
11339;BME280;5724;42.684;23.252;2023-03-22T14:01:17;94171.81;;;10.24;94.15
11339;BME280;5724;42.684;23.252;2023-03-22T14:03:49;94153.53;;;10.28;92.68
11339;BME280;5724;42.684;23.252;2023-03-22T14:06:23;94166.47;;;10.31;92.19
11339;BME280;5724;42.684;23.252;2023-03-22T14:08:55;94170.44;;;10.34;91.44
11339;BME280;5724;42.684;23.252;2023-03-22T14:11:35;94180.22;;;10.35;90.27
11339;BME280;5724;42.684;23.252;2023-03-22T14:14:06;94163.16;;;10.42;90.84
11339;BME280;5724;42.684;23.252;2023-03-22T14:16:50;94163.88;;;10.39;89.72
11339;BME280;5724;42.684;23.252;2023-03-22T14:19:20;94165.16;;;10.45;91.54
11339;BME280;5724;42.684;23.252;2023-03-22T14:21:51;94172.41;;;10.79;90.53
11339;BME280;5724;42.684;23.252;2023-03-22T14:24:20;94160.28;;;10.54;88.46
11339;BME280;5724;42.684;23.252;2023-03-22T14:26:53;94167.44;;;10.62;91.07
11339;BME280;5724;42.684;23.252;2023-03-22T14:29:25;94175.00;;;10.49;90.07
11339;BME280;5724;42.684;23.252;2023-03-22T14:31:59;94161.47;;;10.34;89.51
11339;BME280;5724;42.684;23.252;2023-03-22T14:34:32;94171.91;;;10.12;90.42